<?xml version="1.0" encoding="UTF-8"?>
<gpx version="1.0" creator="Trackator" xmlns:xsi="http://www.w3.org/2001/XMLSchema-instance" xmlns="http://www.topografix.com/GPX/1/0" xmlns:topografix="http://www.topografix.com/GPX/Private/TopoGrafix/0/1" xsi:schemaLocation="http://www.topografix.com/GPX/1/0 http://www.topografix.com/GPX/1/0/gpx.xsd http://www.topografix.com/GPX/Private/TopoGrafix/0/1 http://www.topografix.com/GPX/Private/TopoGrafix/0/1/topografix.xsd">
<metadata>
<link href="http://www.trackalia.com/trackatorweb.php">
<text>Trackator</text>
</link>
</metadata>
<time>2017-07-06T19:52:18Z</time>
<trk>
<name>Track: </name>
<desc>Cycling</desc>
<trkseg>
<trkpt lat="50.5977902" lon="16.8070932">
<ele>316</ele>
<time>2017-07-06T19:52:18Z</time>
</trkpt>
<trkpt lat="50.5977902" lon="16.8070932">
<ele>316</ele>
<time>2017-07-06T19:52:21Z</time>
</trkpt>
<trkpt lat="50.5977902" lon="16.8070932">
<ele>316</ele>
<time>2017-07-06T19:52:23Z</time>
</trkpt>
<trkpt lat="50.5977902" lon="16.8070932">
<ele>316</ele>
<time>2017-07-06T19:52:25Z</time>
</trkpt>
<trkpt lat="50.5977902" lon="16.8070932">
<ele>316</ele>
<time>2017-07-06T19:52:27Z</time>
</trkpt>
<trkpt lat="50.5977902" lon="16.8070932">
<ele>316</ele>
<time>2017-07-06T19:52:29Z</time>
</trkpt>
<trkpt lat="50.5977868" lon="16.8070886">
<ele>317</ele>
<time>2017-07-06T19:52:31Z</time>
</trkpt>
<trkpt lat="50.5977868" lon="16.8070902">
<ele>318</ele>
<time>2017-07-06T19:52:33Z</time>
</trkpt>
<trkpt lat="50.5977868" lon="16.8070902">
<ele>318</ele>
<time>2017-07-06T19:52:35Z</time>
</trkpt>
<trkpt lat="50.5977868" lon="16.8070902">
<ele>318</ele>
<time>2017-07-06T19:52:37Z</time>
</trkpt>
<trkpt lat="50.5977868" lon="16.8070902">
<ele>318</ele>
<time>2017-07-06T19:52:40Z</time>
</trkpt>
<trkpt lat="50.5977868" lon="16.8070902">
<ele>318</ele>
<time>2017-07-06T19:52:42Z</time>
</trkpt>
<trkpt lat="50.5977868" lon="16.8070902">
<ele>318</ele>
<time>2017-07-06T19:52:44Z</time>
</trkpt>
<trkpt lat="50.5977868" lon="16.8070902">
<ele>318</ele>
<time>2017-07-06T19:52:46Z</time>
</trkpt>
<trkpt lat="50.5977868" lon="16.8070902">
<ele>318</ele>
<time>2017-07-06T19:52:49Z</time>
</trkpt>
<trkpt lat="50.5977868" lon="16.8070902">
<ele>318</ele>
<time>2017-07-06T19:52:51Z</time>
</trkpt>
<trkpt lat="50.5977868" lon="16.8070902">
<ele>318</ele>
<time>2017-07-06T19:52:53Z</time>
</trkpt>
<trkpt lat="50.5977868" lon="16.8070902">
<ele>318</ele>
<time>2017-07-06T19:52:55Z</time>
</trkpt>
<trkpt lat="50.5977868" lon="16.8070902">
<ele>318</ele>
<time>2017-07-06T19:52:57Z</time>
</trkpt>
<trkpt lat="50.5977868" lon="16.8070902">
<ele>318</ele>
<time>2017-07-06T19:52:59Z</time>
</trkpt>
<trkpt lat="50.5977868" lon="16.8070902">
<ele>318</ele>
<time>2017-07-06T19:53:01Z</time>
</trkpt>
<trkpt lat="50.5977868" lon="16.8070902">
<ele>318</ele>
<time>2017-07-06T19:53:03Z</time>
</trkpt>
<trkpt lat="50.5977868" lon="16.8070902">
<ele>318</ele>
<time>2017-07-06T19:53:05Z</time>
</trkpt>
<trkpt lat="50.5977868" lon="16.8070902">
<ele>318</ele>
<time>2017-07-06T19:53:07Z</time>
</trkpt>
<trkpt lat="50.5977868" lon="16.8070902">
<ele>318</ele>
<time>2017-07-06T19:53:09Z</time>
</trkpt>
<trkpt lat="50.5977868" lon="16.8070902">
<ele>318</ele>
<time>2017-07-06T19:53:11Z</time>
</trkpt>
<trkpt lat="50.5977868" lon="16.8070902">
<ele>318</ele>
<time>2017-07-06T19:53:13Z</time>
</trkpt>
<trkpt lat="50.5977868" lon="16.8070902">
<ele>318</ele>
<time>2017-07-06T19:53:15Z</time>
</trkpt>
<trkpt lat="50.5977868" lon="16.8070902">
<ele>318</ele>
<time>2017-07-06T19:53:17Z</time>
</trkpt>
<trkpt lat="50.5977868" lon="16.8070902">
<ele>318</ele>
<time>2017-07-06T19:53:19Z</time>
</trkpt>
<trkpt lat="50.5977868" lon="16.8070902">
<ele>318</ele>
<time>2017-07-06T19:53:21Z</time>
</trkpt>
<trkpt lat="50.5977868" lon="16.8070902">
<ele>318</ele>
<time>2017-07-06T19:53:23Z</time>
</trkpt>
<trkpt lat="50.5977868" lon="16.8070902">
<ele>318</ele>
<time>2017-07-06T19:53:25Z</time>
</trkpt>
<trkpt lat="50.5977868" lon="16.8070902">
<ele>318</ele>
<time>2017-07-06T19:53:27Z</time>
</trkpt>
<trkpt lat="50.5977868" lon="16.8070902">
<ele>318</ele>
<time>2017-07-06T19:53:29Z</time>
</trkpt>
<trkpt lat="50.5977868" lon="16.8070902">
<ele>318</ele>
<time>2017-07-06T19:53:31Z</time>
</trkpt>
<trkpt lat="50.5977868" lon="16.8070902">
<ele>318</ele>
<time>2017-07-06T19:53:33Z</time>
</trkpt>
<trkpt lat="50.5977868" lon="16.8070902">
<ele>318</ele>
<time>2017-07-06T19:53:35Z</time>
</trkpt>
<trkpt lat="50.5977868" lon="16.8070902">
<ele>318</ele>
<time>2017-07-06T19:53:37Z</time>
</trkpt>
<trkpt lat="50.5977868" lon="16.8070902">
<ele>318</ele>
<time>2017-07-06T19:53:39Z</time>
</trkpt>
<trkpt lat="50.5977868" lon="16.8070902">
<ele>318</ele>
<time>2017-07-06T19:53:42Z</time>
</trkpt>
<trkpt lat="50.5977868" lon="16.8070902">
<ele>318</ele>
<time>2017-07-06T19:53:44Z</time>
</trkpt>
<trkpt lat="50.5977868" lon="16.8070902">
<ele>318</ele>
<time>2017-07-06T19:53:46Z</time>
</trkpt>
<trkpt lat="50.5977868" lon="16.8070902">
<ele>318</ele>
<time>2017-07-06T19:53:48Z</time>
</trkpt>
<trkpt lat="50.5977843" lon="16.8070891">
<ele>317</ele>
<time>2017-07-06T19:53:50Z</time>
</trkpt>
<trkpt lat="50.5977748" lon="16.8070895">
<ele>317</ele>
<time>2017-07-06T19:53:52Z</time>
</trkpt>
<trkpt lat="50.5977748" lon="16.8070895">
<ele>317</ele>
<time>2017-07-06T19:53:54Z</time>
</trkpt>
<trkpt lat="50.5977748" lon="16.8070895">
<ele>317</ele>
<time>2017-07-06T19:53:56Z</time>
</trkpt>
<trkpt lat="50.5977748" lon="16.8070895">
<ele>317</ele>
<time>2017-07-06T19:53:58Z</time>
</trkpt>
<trkpt lat="50.5977748" lon="16.8070895">
<ele>317</ele>
<time>2017-07-06T19:54:00Z</time>
</trkpt>
<trkpt lat="50.5977748" lon="16.8070895">
<ele>317</ele>
<time>2017-07-06T19:54:02Z</time>
</trkpt>
<trkpt lat="50.5977748" lon="16.8070895">
<ele>317</ele>
<time>2017-07-06T19:54:04Z</time>
</trkpt>
<trkpt lat="50.5977748" lon="16.8070895">
<ele>317</ele>
<time>2017-07-06T19:54:06Z</time>
</trkpt>
<trkpt lat="50.5977748" lon="16.8070895">
<ele>317</ele>
<time>2017-07-06T19:54:08Z</time>
</trkpt>
<trkpt lat="50.5977748" lon="16.8070895">
<ele>317</ele>
<time>2017-07-06T19:54:10Z</time>
</trkpt>
<trkpt lat="50.5977748" lon="16.8070895">
<ele>317</ele>
<time>2017-07-06T19:54:12Z</time>
</trkpt>
<trkpt lat="50.5977748" lon="16.8070895">
<ele>317</ele>
<time>2017-07-06T19:54:15Z</time>
</trkpt>
<trkpt lat="50.5977748" lon="16.8070895">
<ele>317</ele>
<time>2017-07-06T19:54:17Z</time>
</trkpt>
<trkpt lat="50.5977748" lon="16.8070895">
<ele>317</ele>
<time>2017-07-06T19:54:19Z</time>
</trkpt>
<trkpt lat="50.5977748" lon="16.8070895">
<ele>317</ele>
<time>2017-07-06T19:54:22Z</time>
</trkpt>
<trkpt lat="50.5977748" lon="16.8070895">
<ele>317</ele>
<time>2017-07-06T19:54:24Z</time>
</trkpt>
<trkpt lat="50.5977748" lon="16.8070895">
<ele>317</ele>
<time>2017-07-06T19:54:26Z</time>
</trkpt>
<trkpt lat="50.5977748" lon="16.8070895">
<ele>317</ele>
<time>2017-07-06T19:54:28Z</time>
</trkpt>
<trkpt lat="50.5977748" lon="16.8070895">
<ele>317</ele>
<time>2017-07-06T19:54:30Z</time>
</trkpt>
<trkpt lat="50.5977748" lon="16.8070895">
<ele>317</ele>
<time>2017-07-06T19:54:32Z</time>
</trkpt>
<trkpt lat="50.5977748" lon="16.8070895">
<ele>317</ele>
<time>2017-07-06T19:54:34Z</time>
</trkpt>
<trkpt lat="50.5977748" lon="16.8070895">
<ele>317</ele>
<time>2017-07-06T19:54:36Z</time>
</trkpt>
<trkpt lat="50.5977748" lon="16.8070895">
<ele>317</ele>
<time>2017-07-06T19:54:38Z</time>
</trkpt>
<trkpt lat="50.5977748" lon="16.8070895">
<ele>317</ele>
<time>2017-07-06T19:54:40Z</time>
</trkpt>
<trkpt lat="50.5977748" lon="16.8070895">
<ele>317</ele>
<time>2017-07-06T19:54:42Z</time>
</trkpt>
<trkpt lat="50.5977748" lon="16.8070895">
<ele>317</ele>
<time>2017-07-06T19:54:44Z</time>
</trkpt>
<trkpt lat="50.5977748" lon="16.8070895">
<ele>317</ele>
<time>2017-07-06T19:54:46Z</time>
</trkpt>
<trkpt lat="50.5977748" lon="16.8070895">
<ele>317</ele>
<time>2017-07-06T19:54:48Z</time>
</trkpt>
<trkpt lat="50.5977748" lon="16.8070895">
<ele>317</ele>
<time>2017-07-06T19:54:51Z</time>
</trkpt>
<trkpt lat="50.5977748" lon="16.8070895">
<ele>317</ele>
<time>2017-07-06T19:54:53Z</time>
</trkpt>
<trkpt lat="50.5977748" lon="16.8070895">
<ele>317</ele>
<time>2017-07-06T19:54:55Z</time>
</trkpt>
<trkpt lat="50.5977748" lon="16.8070895">
<ele>317</ele>
<time>2017-07-06T19:54:59Z</time>
</trkpt>
<trkpt lat="50.5977748" lon="16.8070895">
<ele>317</ele>
<time>2017-07-06T19:55:01Z</time>
</trkpt>
<trkpt lat="50.5977748" lon="16.8070895">
<ele>317</ele>
<time>2017-07-06T19:55:03Z</time>
</trkpt>
<trkpt lat="50.5977748" lon="16.8070895">
<ele>317</ele>
<time>2017-07-06T19:55:05Z</time>
</trkpt>
<trkpt lat="50.5977748" lon="16.8070895">
<ele>317</ele>
<time>2017-07-06T19:55:07Z</time>
</trkpt>
<trkpt lat="50.5977748" lon="16.8070895">
<ele>317</ele>
<time>2017-07-06T19:55:09Z</time>
</trkpt>
<trkpt lat="50.5977748" lon="16.8070895">
<ele>317</ele>
<time>2017-07-06T19:55:11Z</time>
</trkpt>
<trkpt lat="50.5977748" lon="16.8070895">
<ele>317</ele>
<time>2017-07-06T19:55:13Z</time>
</trkpt>
<trkpt lat="50.5977748" lon="16.8070895">
<ele>317</ele>
<time>2017-07-06T19:55:15Z</time>
</trkpt>
<trkpt lat="50.5977748" lon="16.8070895">
<ele>317</ele>
<time>2017-07-06T19:55:17Z</time>
</trkpt>
<trkpt lat="50.5977748" lon="16.8070895">
<ele>317</ele>
<time>2017-07-06T19:55:19Z</time>
</trkpt>
<trkpt lat="50.5977748" lon="16.8070895">
<ele>317</ele>
<time>2017-07-06T19:55:21Z</time>
</trkpt>
<trkpt lat="50.5977748" lon="16.8070895">
<ele>317</ele>
<time>2017-07-06T19:55:23Z</time>
</trkpt>
<trkpt lat="50.5977748" lon="16.8070895">
<ele>317</ele>
<time>2017-07-06T19:55:25Z</time>
</trkpt>
<trkpt lat="50.5977748" lon="16.8070895">
<ele>317</ele>
<time>2017-07-06T19:55:27Z</time>
</trkpt>
<trkpt lat="50.5977748" lon="16.8070895">
<ele>317</ele>
<time>2017-07-06T19:55:29Z</time>
</trkpt>
<trkpt lat="50.5977748" lon="16.8070895">
<ele>317</ele>
<time>2017-07-06T19:55:31Z</time>
</trkpt>
<trkpt lat="50.5977748" lon="16.8070895">
<ele>317</ele>
<time>2017-07-06T19:55:33Z</time>
</trkpt>
<trkpt lat="50.5977748" lon="16.8070895">
<ele>317</ele>
<time>2017-07-06T19:55:35Z</time>
</trkpt>
<trkpt lat="50.5977748" lon="16.8070895">
<ele>317</ele>
<time>2017-07-06T19:55:38Z</time>
</trkpt>
<trkpt lat="50.5977748" lon="16.8070895">
<ele>317</ele>
<time>2017-07-06T19:55:40Z</time>
</trkpt>
<trkpt lat="50.5977748" lon="16.8070895">
<ele>317</ele>
<time>2017-07-06T19:55:42Z</time>
</trkpt>
<trkpt lat="50.5977748" lon="16.8070895">
<ele>317</ele>
<time>2017-07-06T19:55:44Z</time>
</trkpt>
<trkpt lat="50.5977748" lon="16.8070895">
<ele>317</ele>
<time>2017-07-06T19:55:46Z</time>
</trkpt>
<trkpt lat="50.5977748" lon="16.8070895">
<ele>317</ele>
<time>2017-07-06T19:55:48Z</time>
</trkpt>
<trkpt lat="50.5977748" lon="16.8070895">
<ele>317</ele>
<time>2017-07-06T19:55:50Z</time>
</trkpt>
<trkpt lat="50.5977748" lon="16.8070895">
<ele>317</ele>
<time>2017-07-06T19:55:52Z</time>
</trkpt>
<trkpt lat="50.5977748" lon="16.8070895">
<ele>317</ele>
<time>2017-07-06T19:55:54Z</time>
</trkpt>
<trkpt lat="50.5977748" lon="16.8070895">
<ele>317</ele>
<time>2017-07-06T19:55:56Z</time>
</trkpt>
<trkpt lat="50.5977748" lon="16.8070895">
<ele>317</ele>
<time>2017-07-06T19:55:58Z</time>
</trkpt>
<trkpt lat="50.5977748" lon="16.8070895">
<ele>317</ele>
<time>2017-07-06T19:56:00Z</time>
</trkpt>
<trkpt lat="50.5977748" lon="16.8070895">
<ele>317</ele>
<time>2017-07-06T19:56:02Z</time>
</trkpt>
<trkpt lat="50.5977748" lon="16.8070895">
<ele>317</ele>
<time>2017-07-06T19:56:04Z</time>
</trkpt>
<trkpt lat="50.5977748" lon="16.8070895">
<ele>317</ele>
<time>2017-07-06T19:56:06Z</time>
</trkpt>
<trkpt lat="50.5977748" lon="16.8070895">
<ele>317</ele>
<time>2017-07-06T19:56:08Z</time>
</trkpt>
<trkpt lat="50.5977748" lon="16.8070895">
<ele>317</ele>
<time>2017-07-06T19:56:10Z</time>
</trkpt>
<trkpt lat="50.5977748" lon="16.8070895">
<ele>317</ele>
<time>2017-07-06T19:56:12Z</time>
</trkpt>
<trkpt lat="50.5977748" lon="16.8070895">
<ele>317</ele>
<time>2017-07-06T19:56:15Z</time>
</trkpt>
<trkpt lat="50.5977748" lon="16.8070895">
<ele>317</ele>
<time>2017-07-06T19:56:17Z</time>
</trkpt>
<trkpt lat="50.5977748" lon="16.8070895">
<ele>317</ele>
<time>2017-07-06T19:56:19Z</time>
</trkpt>
<trkpt lat="50.5977748" lon="16.8070895">
<ele>317</ele>
<time>2017-07-06T19:56:21Z</time>
</trkpt>
<trkpt lat="50.5977748" lon="16.8070895">
<ele>317</ele>
<time>2017-07-06T19:56:23Z</time>
</trkpt>
<trkpt lat="50.5977748" lon="16.8070895">
<ele>317</ele>
<time>2017-07-06T19:56:25Z</time>
</trkpt>
<trkpt lat="50.5977748" lon="16.8070895">
<ele>317</ele>
<time>2017-07-06T19:56:27Z</time>
</trkpt>
<trkpt lat="50.5977748" lon="16.8070895">
<ele>317</ele>
<time>2017-07-06T19:56:29Z</time>
</trkpt>
<trkpt lat="50.5977748" lon="16.8070895">
<ele>317</ele>
<time>2017-07-06T19:56:31Z</time>
</trkpt>
<trkpt lat="50.5977748" lon="16.8070895">
<ele>317</ele>
<time>2017-07-06T19:56:33Z</time>
</trkpt>
<trkpt lat="50.5977748" lon="16.8070895">
<ele>317</ele>
<time>2017-07-06T19:56:35Z</time>
</trkpt>
<trkpt lat="50.5977748" lon="16.8070895">
<ele>317</ele>
<time>2017-07-06T19:56:37Z</time>
</trkpt>
<trkpt lat="50.5977748" lon="16.8070895">
<ele>317</ele>
<time>2017-07-06T19:56:40Z</time>
</trkpt>
<trkpt lat="50.5977748" lon="16.8070895">
<ele>317</ele>
<time>2017-07-06T19:56:42Z</time>
</trkpt>
<trkpt lat="50.5977748" lon="16.8070895">
<ele>317</ele>
<time>2017-07-06T19:56:44Z</time>
</trkpt>
<trkpt lat="50.5977748" lon="16.8070895">
<ele>317</ele>
<time>2017-07-06T19:56:46Z</time>
</trkpt>
<trkpt lat="50.5977748" lon="16.8070895">
<ele>317</ele>
<time>2017-07-06T19:56:48Z</time>
</trkpt>
<trkpt lat="50.5977748" lon="16.8070895">
<ele>317</ele>
<time>2017-07-06T19:56:50Z</time>
</trkpt>
<trkpt lat="50.5977748" lon="16.8070895">
<ele>317</ele>
<time>2017-07-06T19:56:52Z</time>
</trkpt>
<trkpt lat="50.5977748" lon="16.8070895">
<ele>317</ele>
<time>2017-07-06T19:56:54Z</time>
</trkpt>
<trkpt lat="50.5977748" lon="16.8070895">
<ele>317</ele>
<time>2017-07-06T19:56:56Z</time>
</trkpt>
<trkpt lat="" lon="">
<ele></ele>
<time>2017-07-06TZ</time>
</trkpt>
</trkseg>
</trk>
<wpt lat="" lon="">
	<name></name>
	<desc></desc>
	<cmt></cmt>
	<photoid></photoid>
	<type></type>
</wpt>
</gpx>
